MCZ weather

Martin County Airport
Williamston, North Carolina, United States

Public forecast

Using degrees Fahrenheit for public forecast. Weather courtesy of forecast.io.

METAR (pilot weather report)

Closest report is Pitt Greenville Airport, 17.0 nm (31.4 km) SW. Retrieved 2019/04/21 18:25 UTC (1 minute ago):

KPGV 211825Z AUTO 00000KT 10SM SCT050 BKN065 16/06 A3005 RMK AO2

TAF (pilot weather forecast)

Closest forecast is Pitt Greenville Airport, 17.0 nm (31.4 km) SW. Retrieved 2019/04/21 12:40 UTC (6 hours ago):

TAF KPGV 211137Z 2112/2212 22005KT P6SM SCT060 FM211800 28005KT P6SM BKN050 FM220300 00000KT P6SM SKC AMD LTD TO CLD VIS AND WIND